createdAt,value
2023-04-04T00:00:38.129Z,-23780.39
2023-04-04T00:03:05.117Z,-23780.08
2023-04-04T00:08:13.956Z,-23781.21
2023-04-04T00:10:42.946Z,-23780.62
2023-04-04T00:13:11.539Z,-23780.74
2023-04-04T00:15:39.697Z,-23781.21
2023-04-04T00:18:08.745Z,-23781.75
2023-04-04T00:20:37.478Z,-23781.71
2023-04-04T00:23:05.897Z,-23781.75
2023-04-04T00:25:35.663Z,-23781.94
2023-04-04T00:28:03.942Z,-23782.38
2023-04-04T00:30:32.511Z,-23782.60
2023-04-04T00:33:02.138Z,-23781.91
2023-04-04T00:35:30.457Z,-23781.25
2023-04-04T00:37:58.904Z,-23781.18
2023-04-04T00:40:27.313Z,-23781.15
2023-04-04T00:42:56.121Z,-23780.87
2023-04-04T00:45:24.433Z,-23780.61
2023-04-04T00:47:54.697Z,-23780.55
2023-04-04T00:50:22.870Z,-23780.96
2023-04-04T00:52:51.046Z,-23780.93
2023-04-04T00:55:19.296Z,-23780.90
2023-04-04T00:57:47.673Z,-23781.12
2023-04-04T01:00:16.236Z,-23781.28
2023-04-04T01:03:05.902Z,-23781.03
2023-04-04T01:05:35.051Z,-23781.25
2023-04-04T01:08:03.591Z,-23781.12
2023-04-04T01:10:33.729Z,-23781.12
2023-04-04T01:13:02.600Z,-23781.18
2023-04-04T01:15:31.277Z,-23781.21
2023-04-04T01:18:00.623Z,-23781.18
2023-04-04T01:20:31.712Z,-23781.12
2023-04-04T01:23:00.421Z,-23781.53
2023-04-04T01:25:32.668Z,-23781.93
2023-04-04T01:28:05.512Z,-23781.66
2023-04-04T01:30:36.056Z,-23781.31
2023-04-04T01:33:23.355Z,-23781.46
2023-04-04T01:36:13.153Z,-23781.81
2023-04-04T01:38:54.806Z,-23782.06
2023-04-04T01:41:23.245Z,-23782.54
2023-04-04T01:43:58.440Z,-23782.91
2023-04-04T01:46:27.771Z,-23783.07
2023-04-04T01:48:55.925Z,-23783.73
2023-04-04T01:51:27.851Z,-23784.36
2023-04-04T01:53:56.279Z,-23785.05
2023-04-04T01:56:25.541Z,-23785.18
2023-04-04T01:58:54.821Z,-23785.43
2023-04-04T02:01:23.146Z,-23786.03
2023-04-04T02:03:51.755Z,-23786.54
2023-04-04T02:06:22.840Z,-23787.10
2023-04-04T02:08:51.954Z,-23787.51
2023-04-04T02:11:23.209Z,-23787.73
2023-04-04T02:13:53.575Z,-23788.11
2023-04-04T02:16:22.189Z,-23788.52
2023-04-04T02:18:52.013Z,-23788.87
2023-04-04T02:21:20.194Z,-23788.90
2023-04-04T02:23:48.571Z,-23788.93
2023-04-04T02:26:16.909Z,-23788.68
2023-04-04T02:28:48.507Z,-23787.70
2023-04-04T02:31:17.500Z,-23785.71
2023-04-04T02:33:47.011Z,-23783.98
2023-04-04T02:36:16.722Z,-23782.76
2023-04-04T02:38:46.025Z,-23781.65
2023-04-04T02:41:14.216Z,-23780.23
2023-04-04T02:43:43.034Z,-23778.97
2023-04-04T02:46:21.051Z,-23778.75
2023-04-04T02:48:52.392Z,-23778.35
2023-04-04T02:51:20.980Z,-23777.47
2023-04-04T02:53:49.357Z,-23777.15
2023-04-04T02:56:22.401Z,-23777.15
2023-04-04T02:58:50.838Z,-23776.39
2023-04-04T03:01:19.397Z,-23776.05
2023-04-04T03:03:48.247Z,-23775.89
2023-04-04T03:06:16.624Z,-23775.67
2023-04-04T03:08:47.380Z,-23775.42
2023-04-04T03:11:21.518Z,-23775.01
2023-04-04T03:13:51.817Z,-23774.85
2023-04-04T03:16:22.575Z,-23775.23
2023-04-04T03:18:52.518Z,-23775.45
2023-04-04T03:21:29.472Z,-23775.36
2023-04-04T03:23:58.889Z,-23774.91
2023-04-04T03:26:28.563Z,-23774.57
2023-04-04T03:28:57.140Z,-23774.13
2023-04-04T03:31:26.276Z,-23773.72
2023-04-04T03:33:54.906Z,-23773.21
2023-04-04T03:36:23.634Z,-23773.18
2023-04-04T03:38:54.133Z,-23773.30
2023-04-04T03:41:22.914Z,-23773.18
2023-04-04T03:43:52.327Z,-23773.24
2023-04-04T03:46:21.653Z,-23772.93
2023-04-04T03:48:50.247Z,-23772.39
2023-04-04T03:51:25.705Z,-23772.39
2023-04-04T03:53:54.433Z,-23771.80
2023-04-04T03:56:32.095Z,-23771.07
2023-04-04T03:59:01.687Z,-23770.41
2023-04-04T04:01:29.960Z,-23769.62
2023-04-04T04:03:58.359Z,-23769.31
2023-04-04T04:06:27.234Z,-23769.18
2023-04-04T04:08:56.669Z,-23769.37
2023-04-04T04:11:25.035Z,-23769.28
2023-04-04T04:13:53.596Z,-23768.80
2023-04-04T04:16:24.943Z,-23769.05
2023-04-04T04:18:53.596Z,-23768.93
2023-04-04T04:21:31.202Z,-23768.55
2023-04-04T04:24:01.204Z,-23768.01
2023-04-04T04:26:31.285Z,-23768.04
2023-04-04T04:29:00.488Z,-23768.17
2023-04-04T04:31:31.701Z,-23768.01
2023-04-04T04:34:00.112Z,-23768.11
2023-04-04T04:36:32.826Z,-23767.92
2023-04-04T04:39:11.345Z,-23767.51
2023-04-04T04:41:40.859Z,-23767.57
2023-04-04T04:44:09.254Z,-23767.45
2023-04-04T04:46:37.686Z,-23767.35
2023-04-04T04:49:16.848Z,-23767.04
2023-04-04T04:51:45.886Z,-23766.97
2023-04-04T04:54:15.294Z,-23767.20
2023-04-04T04:56:45.776Z,-23767.39
2023-04-04T04:59:15.917Z,-23767.23
2023-04-04T05:01:49.066Z,-23767.29
2023-04-04T05:04:18.005Z,-23767.42
2023-04-04T05:06:57.390Z,-23767.92
2023-04-04T05:09:33.271Z,-23768.20
2023-04-04T05:12:01.978Z,-23768.17
2023-04-04T05:14:37.947Z,-23768.93
2023-04-04T05:17:06.766Z,-23770.63
2023-04-04T05:19:35.775Z,-23771.36
2023-04-04T05:22:04.247Z,-23772.08
2023-04-04T05:24:48.621Z,-23773.27
2023-04-04T05:27:19.021Z,-23772.90
2023-04-04T05:29:49.844Z,-23772.30
2023-04-04T05:32:19.303Z,-23772.17
2023-04-04T05:34:53.725Z,-23772.30
2023-04-04T05:37:23.239Z,-23772.80
2023-04-04T05:39:54.019Z,-23772.93
2023-04-04T05:42:22.839Z,-23773.12
2023-04-04T05:44:52.800Z,-23773.56
2023-04-04T05:47:22.311Z,-23773.43
2023-04-04T05:49:50.759Z,-23773.81
2023-04-04T05:52:20.567Z,-23774.41
2023-04-04T05:54:49.735Z,-23775.16
2023-04-04T05:57:25.355Z,-23775.77
2023-04-04T06:00:02.647Z,-23775.51
2023-04-04T06:02:35.310Z,-23775.20
2023-04-04T06:05:05.797Z,-23776.08
2023-04-04T06:07:37.269Z,-23776.14
2023-04-04T06:10:06.212Z,-23775.77
2023-04-04T06:12:36.716Z,-23775.92
2023-04-04T06:15:11.293Z,-23775.54
2023-04-04T06:17:42.671Z,-23775.67
2023-04-04T06:20:11.493Z,-23775.70
2023-04-04T06:22:40.046Z,-23775.29
2023-04-04T06:25:10.695Z,-23774.79
2023-04-04T06:27:40.760Z,-23774.66
2023-04-04T06:30:11.619Z,-23774.50
2023-04-04T06:32:46.440Z,-23774.22
2023-04-04T06:35:20.421Z,-23774.63
2023-04-04T06:38:09.809Z,-23775.39
2023-04-04T06:40:38.308Z,-23776.17
2023-04-04T06:43:06.794Z,-23776.61
2023-04-04T06:45:47.830Z,-23777.18
2023-04-04T06:48:17.284Z,-23776.39
2023-04-04T06:50:45.823Z,-23775.26
2023-04-04T06:53:16.295Z,-23774.82
2023-04-04T06:55:45.343Z,-23773.94
2023-04-04T06:58:19.113Z,-23773.18
2023-04-04T07:00:47.625Z,-23772.96
2023-04-04T07:03:17.903Z,-23773.78
2023-04-04T07:05:46.736Z,-23774.29
2023-04-04T07:08:15.748Z,-23774.76
2023-04-04T07:10:44.257Z,-23774.72
2023-04-04T07:13:13.590Z,-23775.07
2023-04-04T07:15:48.919Z,-23775.13
2023-04-04T07:18:17.352Z,-23774.91
2023-04-04T07:20:51.936Z,-23775.39
2023-04-04T07:23:27.371Z,-23776.08
2023-04-04T07:25:56.163Z,-23776.11
2023-04-04T07:28:25.205Z,-23776.02
2023-04-04T07:31:03.665Z,-23775.64
2023-04-04T07:33:32.706Z,-23774.54
2023-04-04T07:36:03.902Z,-23773.62
2023-04-04T07:38:34.940Z,-23773.84
2023-04-04T07:41:04.378Z,-23774.57
2023-04-04T07:43:34.179Z,-23774.97
2023-04-04T07:46:02.922Z,-23775.35
2023-04-04T07:48:31.729Z,-23774.57
2023-04-04T07:51:04.580Z,-23773.84
2023-04-04T07:53:33.181Z,-23773.75
2023-04-04T07:56:06.708Z,-23774.73
2023-04-04T07:58:37.771Z,-23776.78
2023-04-04T08:01:06.156Z,-23778.09
2023-04-04T08:03:36.989Z,-23779.82
2023-04-04T08:06:05.266Z,-23781.18
2023-04-04T08:08:33.475Z,-23782.03
2023-04-04T08:11:03.981Z,-23782.29
2023-04-04T08:13:33.053Z,-23781.97
2023-04-04T08:16:01.674Z,-23781.97
2023-04-04T08:18:31.686Z,-23782.25
2023-04-04T08:20:59.883Z,-23783.64
2023-04-04T08:23:29.988Z,-23784.64
2023-04-04T08:26:00.244Z,-23784.68
2023-04-04T08:28:28.764Z,-23785.53
2023-04-04T08:30:57.104Z,-23787.42
2023-04-04T08:33:40.877Z,-23788.93
2023-04-04T08:36:15.803Z,-23789.03
2023-04-04T08:38:44.788Z,-23788.71
2023-04-04T08:41:13.429Z,-23789.50
2023-04-04T08:43:44.767Z,-23789.93
2023-04-04T08:46:13.522Z,-23790.75
2023-04-04T08:48:43.560Z,-23791.92
2023-04-04T08:51:12.412Z,-23791.95
2023-04-04T08:53:47.658Z,-23792.08
2023-04-04T08:56:16.449Z,-23792.87
2023-04-04T08:58:44.906Z,-23793.49
2023-04-04T09:01:13.116Z,-23794.91
2023-04-04T09:03:44.204Z,-23796.96
2023-04-04T09:06:13.218Z,-23798.78
2023-04-04T09:08:42.177Z,-23799.66
2023-04-04T09:11:10.617Z,-23799.22
2023-04-04T09:13:41.382Z,-23797.46
2023-04-04T09:16:09.855Z,-23795.82
2023-04-04T09:18:38.758Z,-23795.22
2023-04-04T09:21:13.202Z,-23795.45
2023-04-04T09:23:43.833Z,-23796.89
2023-04-04T09:26:13.439Z,-23798.34
2023-04-04T09:28:42.268Z,-23799.07
2023-04-04T09:31:11.211Z,-23799.22
2023-04-04T09:33:39.567Z,-23798.50
2023-04-04T09:36:11.761Z,-23797.96
2023-04-04T09:38:45.723Z,-23798.18
2023-04-04T09:41:15.053Z,-23798.18
2023-04-04T09:43:44.998Z,-23798.50
2023-04-04T09:46:13.239Z,-23798.72
2023-04-04T09:48:41.780Z,-23799.26
2023-04-04T09:51:12.488Z,-23799.73
2023-04-04T09:53:43.443Z,-23800.23
2023-04-04T09:56:11.876Z,-23802.06
2023-04-04T09:58:52.469Z,-23802.78
2023-04-04T10:01:28.960Z,-23802.91
2023-04-04T10:03:58.237Z,-23803.60
2023-04-04T10:06:27.116Z,-23803.73
2023-04-04T10:08:56.791Z,-23804.42
2023-04-04T10:11:32.428Z,-23805.68
2023-04-04T10:14:01.410Z,-23807.31
2023-04-04T10:16:49.910Z,-23809.42
2023-04-04T10:19:20.144Z,-23812.69
2023-04-04T10:21:50.361Z,-23815.15
2023-04-04T10:24:19.241Z,-23816.25
2023-04-04T10:26:49.438Z,-23816.69
2023-04-04T10:29:21.704Z,-23816.34
2023-04-04T10:32:00.367Z,-23814.96
2023-04-04T10:34:29.451Z,-23814.93
2023-04-04T10:37:03.752Z,-23815.71
2023-04-04T10:39:47.280Z,-23817.60
2023-04-04T10:42:17.896Z,-23818.83
2023-04-04T10:44:46.305Z,-23819.62
2023-04-04T10:47:16.747Z,-23821.28
2023-04-04T10:49:45.899Z,-23822.76
2023-04-04T10:52:24.814Z,-23822.79
2023-04-04T10:54:55.263Z,-23824.14
2023-04-04T10:57:23.915Z,-23825.81
2023-04-04T11:00:08.805Z,-23826.85
2023-04-04T11:02:52.237Z,-23827.26
2023-04-04T11:05:27.176Z,-23826.41
2023-04-04T11:10:44.736Z,-23826.66
2023-04-04T11:13:41.804Z,-23827.73
2023-04-04T11:16:15.961Z,-23828.86
2023-04-04T11:18:50.053Z,-23830.46
2023-04-04T11:21:20.399Z,-23831.60
2023-04-04T11:23:51.564Z,-23832.98
2023-04-04T11:26:25.839Z,-23833.70
2023-04-04T11:28:58.168Z,-23833.14
2023-04-04T11:31:33.040Z,-23833.23
2023-04-04T11:34:08.997Z,-23833.70
2023-04-04T11:36:37.632Z,-23835.24
2023-04-04T11:39:28.732Z,-23836.31
2023-04-04T11:42:08.427Z,-23836.57
2023-04-04T11:44:41.882Z,-23836.31
2023-04-04T11:47:11.189Z,-23836.31
2023-04-04T11:49:43.600Z,-23837.04
2023-04-04T11:52:13.886Z,-23836.91
2023-04-04T11:54:49.255Z,-23837.16
2023-04-04T11:57:19.534Z,-23837.70
2023-04-04T11:59:50.740Z,-23838.04
2023-04-04T12:02:20.763Z,-23838.58
2023-04-04T12:04:49.438Z,-23839.08
2023-04-04T12:07:22.921Z,-23840.12
2023-04-04T12:09:52.403Z,-23841.34
2023-04-04T12:12:21.113Z,-23842.26
2023-04-04T12:14:54.831Z,-23844.07
2023-04-04T12:17:24.391Z,-23845.96
2023-04-04T12:19:52.594Z,-23847.38
2023-04-04T12:22:21.211Z,-23847.82
2023-04-04T12:24:49.499Z,-23848.38
2023-04-04T12:27:19.911Z,-23849.89
2023-04-04T12:29:50.869Z,-23851.78
2023-04-04T12:32:19.216Z,-23852.53
2023-04-04T12:34:49.939Z,-23851.96
2023-04-04T12:37:20.974Z,-23851.43
2023-04-04T12:39:49.620Z,-23851.59
2023-04-04T12:42:22.814Z,-23851.12
2023-04-04T12:44:54.780Z,-23850.43
2023-04-04T12:47:25.107Z,-23851.15
2023-04-04T12:49:57.406Z,-23851.90
2023-04-04T12:52:32.755Z,-23852.46
2023-04-04T12:55:11.025Z,-23853.22
2023-04-04T12:57:39.535Z,-23853.97
2023-04-04T13:00:09.602Z,-23854.38
2023-04-04T13:02:38.930Z,-23854.32
2023-04-04T13:05:08.045Z,-23855.42
2023-04-04T13:07:44.616Z,-23856.62
2023-04-04T13:10:17.531Z,-23857.15
2023-04-04T13:13:01.260Z,-23857.62
2023-04-04T13:16:15.126Z,-23858.81
2023-04-04T13:18:44.357Z,-23859.88
2023-04-04T13:21:13.435Z,-23860.20
2023-04-04T13:23:42.165Z,-23861.04
2023-04-04T13:26:10.872Z,-23862.02
2023-04-04T13:28:39.438Z,-23862.68
2023-04-04T13:31:08.618Z,-23863.21
2023-04-04T13:33:40.373Z,-23864.19
2023-04-04T13:36:08.911Z,-23864.19
2023-04-04T13:38:39.693Z,-23864.75
2023-04-04T13:41:10.844Z,-23865.32
2023-04-04T13:43:42.691Z,-23865.63
2023-04-04T13:46:11.754Z,-23865.75
2023-04-04T13:48:39.956Z,-23865.75
2023-04-04T13:51:08.169Z,-23865.92
2023-04-04T13:53:36.750Z,-23866.79
2023-04-04T13:58:38.365Z,-23868.87
2023-04-04T14:01:09.642Z,-23869.90
2023-04-04T14:03:39.483Z,-23869.71
2023-04-04T14:06:10.740Z,-23868.74
2023-04-04T14:08:40.061Z,-23868.24
2023-04-04T14:11:09.520Z,-23867.55
2023-04-04T14:13:37.628Z,-23867.20
2023-04-04T14:16:08.236Z,-23867.23
2023-04-04T14:18:37.177Z,-23867.48
2023-04-04T14:21:05.642Z,-23867.98
2023-04-04T14:23:33.849Z,-23869.15
2023-04-04T14:26:02.267Z,-23869.62
2023-04-04T14:28:32.244Z,-23870.00
2023-04-04T14:31:00.784Z,-23871.09
2023-04-04T14:33:30.185Z,-23872.10
2023-04-04T14:35:58.419Z,-23872.13
2023-04-04T14:38:26.789Z,-23871.38
2023-04-04T14:40:55.520Z,-23871.75
2023-04-04T14:43:24.582Z,-23872.19
2023-04-04T14:45:53.000Z,-23872.00
2023-04-04T14:48:22.412Z,-23872.16
2023-04-04T14:50:52.128Z,-23872.13
2023-04-04T14:53:22.967Z,-23871.85
2023-04-04T14:55:53.522Z,-23871.50
2023-04-04T14:58:25.900Z,-23871.07
2023-04-04T15:00:54.669Z,-23871.10
2023-04-04T15:03:26.169Z,-23871.63
2023-04-04T15:05:57.916Z,-23872.10
2023-04-04T15:08:28.007Z,-23872.38
2023-04-04T15:10:56.474Z,-23873.14
2023-04-04T15:13:35.622Z,-23874.14
2023-04-04T15:16:04.387Z,-23874.86
2023-04-04T15:18:33.410Z,-23875.08
2023-04-04T15:21:04.610Z,-23875.27
2023-04-04T15:23:33.613Z,-23875.43
2023-04-04T15:26:06.062Z,-23875.14
2023-04-04T15:28:34.510Z,-23874.55
2023-04-04T15:31:03.306Z,-23874.74
2023-04-04T15:33:31.561Z,-23874.64
2023-04-04T15:36:00.034Z,-23874.52
2023-04-04T15:38:28.406Z,-23874.30
2023-04-04T15:40:58.039Z,-23874.17
2023-04-04T15:43:26.495Z,-23874.08
2023-04-04T15:45:54.841Z,-23873.54
2023-04-04T15:48:23.157Z,-23873.32
2023-04-04T15:50:51.421Z,-23873.32
2023-04-04T15:53:21.043Z,-23873.14
2023-04-04T15:55:51.622Z,-23872.82
2023-04-04T15:58:20.586Z,-23872.45
2023-04-04T16:00:48.858Z,-23871.91
2023-04-04T16:03:19.440Z,-23871.57
2023-04-04T16:05:48.406Z,-23871.88
2023-04-04T16:08:21.323Z,-23871.54
2023-04-04T16:10:50.519Z,-23870.53
2023-04-04T16:13:19.768Z,-23870.00
2023-04-04T16:15:50.023Z,-23869.71
2023-04-04T16:18:19.012Z,-23869.34
2023-04-04T16:20:48.004Z,-23869.28
2023-04-04T16:23:18.582Z,-23869.18
2023-04-04T16:25:47.288Z,-23868.68
2023-04-04T16:28:16.140Z,-23868.71
2023-04-04T16:30:53.046Z,-23868.14
2023-04-04T16:33:24.165Z,-23867.93
2023-04-04T16:35:53.013Z,-23868.46
2023-04-04T16:38:21.756Z,-23868.64
2023-04-04T16:40:50.692Z,-23868.14
2023-04-04T16:43:18.816Z,-23867.55
2023-04-04T16:45:47.849Z,-23867.07
2023-04-04T16:48:16.376Z,-23866.92
2023-04-04T16:50:47.597Z,-23866.92
2023-04-04T16:53:16.471Z,-23866.39
2023-04-04T16:55:44.536Z,-23866.10
2023-04-04T16:58:14.596Z,-23865.91
2023-04-04T17:00:44.026Z,-23865.54
2023-04-04T17:03:16.557Z,-23865.25
2023-04-04T17:05:45.989Z,-23865.00
2023-04-04T17:08:14.260Z,-23864.72
2023-04-04T17:10:43.155Z,-23864.63
2023-04-04T17:13:12.246Z,-23864.34
2023-04-04T17:15:41.949Z,-23863.81
2023-04-04T17:18:11.001Z,-23863.34
2023-04-04T17:20:39.505Z,-23863.15
2023-04-04T17:23:07.959Z,-23862.71
2023-04-04T17:25:36.374Z,-23862.27
2023-04-04T17:28:06.108Z,-23862.02
2023-04-04T17:30:34.888Z,-23861.58
2023-04-04T17:33:05.148Z,-23861.02
2023-04-04T17:35:33.708Z,-23860.45
2023-04-04T17:38:08.122Z,-23859.47
2023-04-04T17:40:37.192Z,-23858.53
2023-04-04T17:43:05.487Z,-23858.16
2023-04-04T17:45:35.731Z,-23857.12
2023-04-04T17:48:04.123Z,-23856.40
2023-04-04T17:50:33.538Z,-23854.86
2023-04-04T17:53:02.123Z,-23853.29
2023-04-04T17:55:31.118Z,-23851.75
2023-04-04T17:58:00.001Z,-23850.14
2023-04-04T18:00:29.745Z,-23848.51
2023-04-04T18:02:58.307Z,-23846.88
2023-04-04T18:05:27.339Z,-23845.05
2023-04-04T18:07:56.262Z,-23843.79
2023-04-04T18:10:24.409Z,-23842.72
2023-04-04T18:12:53.155Z,-23842.16
2023-04-04T18:15:21.702Z,-23841.06
2023-04-04T18:17:51.665Z,-23840.12
2023-04-04T18:20:31.885Z,-23839.36
2023-04-04T18:23:06.861Z,-23838.14
2023-04-04T18:25:35.205Z,-23836.94
2023-04-04T18:28:03.965Z,-23835.53
2023-04-04T18:30:35.190Z,-23834.68
2023-04-04T18:33:07.488Z,-23834.30
2023-04-04T18:35:38.357Z,-23833.98
2023-04-04T18:38:06.682Z,-23833.23
2023-04-04T18:40:37.105Z,-23832.45
2023-04-04T18:43:06.251Z,-23831.97
2023-04-04T18:45:40.584Z,-23831.41
2023-04-04T18:48:09.968Z,-23831.12
2023-04-04T18:50:38.834Z,-23830.71
2023-04-04T18:53:07.985Z,-23830.78
2023-04-04T18:55:36.807Z,-23830.75
2023-04-04T18:58:05.307Z,-23831.03
2023-04-04T19:00:33.580Z,-23830.87
2023-04-04T19:03:04.101Z,-23830.62
2023-04-04T19:05:35.852Z,-23830.18
2023-04-04T19:08:06.727Z,-23829.90
2023-04-04T19:10:35.570Z,-23829.90
2023-04-04T19:13:04.317Z,-23828.86
2023-04-04T19:15:34.408Z,-23827.98
2023-04-04T19:18:02.744Z,-23827.66
2023-04-04T19:20:32.008Z,-23827.16
2023-04-04T19:23:00.814Z,-23827.07
2023-04-04T19:25:29.251Z,-23826.91
2023-04-04T19:27:57.386Z,-23826.22
2023-04-04T19:30:43.135Z,-23826.03
2023-04-04T19:33:13.024Z,-23825.96
2023-04-04T19:35:55.854Z,-23825.68
2023-04-04T19:38:31.178Z,-23824.80
2023-04-04T19:41:00.313Z,-23823.20
2023-04-04T19:43:29.599Z,-23821.97
2023-04-04T19:45:59.127Z,-23820.81
2023-04-04T19:48:43.125Z,-23820.18
2023-04-04T19:51:17.713Z,-23819.14
2023-04-04T19:53:48.416Z,-23818.20
2023-04-04T19:56:17.655Z,-23817.19
2023-04-04T19:58:48.483Z,-23816.66
2023-04-04T20:01:23.553Z,-23816.31
2023-04-04T20:03:52.752Z,-23815.74
2023-04-04T20:06:27.802Z,-23815.34
2023-04-04T20:08:57.077Z,-23815.05
2023-04-04T20:11:30.111Z,-23814.80
2023-04-04T20:14:08.397Z,-23814.64
2023-04-04T20:16:37.087Z,-23815.30
2023-04-04T20:19:08.457Z,-23815.37
2023-04-04T20:21:37.473Z,-23815.11
2023-04-04T20:24:08.624Z,-23815.21
2023-04-04T20:26:51.560Z,-23814.99
2023-04-04T20:29:23.052Z,-23814.48
2023-04-04T20:31:58.300Z,-23814.11
2023-04-04T20:34:49.963Z,-23813.17
2023-04-04T20:37:26.358Z,-23812.25
2023-04-04T20:39:59.322Z,-23812.22
2023-04-04T20:42:38.201Z,-23811.97
2023-04-04T20:45:09.547Z,-23811.66
2023-04-04T20:47:53.547Z,-23811.21
2023-04-04T20:50:27.231Z,-23810.14
2023-04-04T20:53:03.710Z,-23809.61
2023-04-04T20:55:33.022Z,-23809.39
2023-04-04T20:58:08.668Z,-23809.04
2023-04-04T21:00:41.405Z,-23808.92
2023-04-04T21:03:34.488Z,-23808.73
2023-04-04T21:06:10.061Z,-23808.47
2023-04-04T21:08:42.269Z,-23808.16
2023-04-04T21:11:12.374Z,-23808.00
2023-04-04T21:13:42.194Z,-23807.91
2023-04-04T21:16:12.018Z,-23808.13
2023-04-04T21:18:41.869Z,-23808.16
2023-04-04T21:21:12.319Z,-23807.85
2023-04-04T21:23:47.953Z,-23807.41
2023-04-04T21:26:26.683Z,-23807.09
2023-04-04T21:28:55.220Z,-23807.13
2023-04-04T21:31:26.169Z,-23807.16
2023-04-04T21:33:55.303Z,-23806.71
2023-04-04T21:36:23.515Z,-23806.05
2023-04-04T21:38:53.083Z,-23805.96
2023-04-04T21:41:31.208Z,-23806.08
2023-04-04T21:44:02.026Z,-23805.83
2023-04-04T21:46:36.201Z,-23805.46
2023-04-04T21:49:06.086Z,-23805.30
2023-04-04T21:51:36.031Z,-23804.80
2023-04-04T21:54:04.435Z,-23804.51
2023-04-04T21:56:33.513Z,-23804.01
2023-04-04T21:59:04.258Z,-23803.98
2023-04-04T22:01:32.492Z,-23804.16
2023-04-04T22:04:05.955Z,-23804.07
2023-04-04T22:06:34.884Z,-23803.70
2023-04-04T22:09:03.558Z,-23803.70
2023-04-04T22:11:34.850Z,-23803.66
2023-04-04T22:14:04.518Z,-23803.57
2023-04-04T22:16:37.079Z,-23803.54
2023-04-04T22:19:07.747Z,-23803.03
2023-04-04T22:21:37.274Z,-23802.91
2023-04-04T22:24:06.438Z,-23802.97
2023-04-04T22:26:34.906Z,-23802.97
2023-04-04T22:29:04.373Z,-23802.78
2023-04-04T22:31:37.626Z,-23802.59
2023-04-04T22:34:06.618Z,-23802.66
2023-04-04T22:36:35.677Z,-23803.03
2023-04-04T22:39:04.169Z,-23802.84
2023-04-04T22:41:32.671Z,-23802.50
2023-04-04T22:44:00.942Z,-23801.93
2023-04-04T22:46:29.917Z,-23801.58
2023-04-04T22:49:06.336Z,-23801.61
2023-04-04T22:51:45.718Z,-23801.46
2023-04-04T22:54:16.544Z,-23801.43
2023-04-04T22:56:45.200Z,-23801.46
2023-04-04T22:59:18.095Z,-23801.18
2023-04-04T23:01:47.533Z,-23801.02
2023-04-04T23:04:18.199Z,-23800.58
2023-04-04T23:06:46.596Z,-23799.82
2023-04-04T23:09:16.184Z,-23799.07
2023-04-04T23:11:44.449Z,-23798.94
2023-04-04T23:14:19.810Z,-23798.69
2023-04-04T23:16:49.044Z,-23798.94
2023-04-04T23:19:18.248Z,-23798.79
2023-04-04T23:21:49.625Z,-23798.44
2023-04-04T23:24:17.867Z,-23798.63
2023-04-04T23:26:46.383Z,-23798.63
2023-04-04T23:29:15.943Z,-23798.91
2023-04-04T23:31:44.406Z,-23799.25
2023-04-04T23:34:14.296Z,-23798.82
2023-04-04T23:36:42.672Z,-23798.38
2023-04-04T23:39:11.969Z,-23798.38
2023-04-04T23:41:40.795Z,-23798.44
2023-04-04T23:44:09.012Z,-23798.54
2023-04-04T23:46:37.756Z,-23798.34
2023-04-04T23:49:06.164Z,-23798.06
2023-04-04T23:51:40.348Z,-23798.00
2023-04-04T23:54:11.073Z,-23798.03
2023-04-04T23:56:39.388Z,-23798.09
2023-04-04T23:59:07.847Z,-23798.28
